Time;durP1;ratioP1;P1;durP2;ratioP2;P2;SDS_P1;SDS_P2;PMS_P1;PMS_P2;Temp;Humidity;BMP_temperature;BMP_pressure;BME280_temperature;BME280_humidity;BME280_pressure;Samples;Min_cycle;Max_cycle;Signal;HPM_P1;HPM_P2
2020/12/24 00:01:06;;;;;;;2.67;2.22;;;;;;;13.28;89.29;99231.54;2834137;84;21150;-66
2020/12/24 00:05:13;;;;;;;1.87;1.72;;;;;;;13.42;88.89;99225.18;2833604;84;21200;-66
2020/12/24 00:09:17;;;;;;;1.50;1.15;;;;;;;13.51;88.22;99224.17;2813150;84;21183;-65
2020/12/24 00:13:20;;;;;;;3.50;1.32;;;;;;;13.55;87.68;99225.49;2809436;84;21698;-66
2020/12/24 00:17:26;;;;;;;1.12;0.90;;;;;;;13.60;87.36;99218.30;2826498;84;21187;-65
2020/12/24 00:21:35;;;;;;;0.78;0.68;;;;;;;13.71;87.07;99209.08;2829027;84;21233;-65
2020/12/24 00:25:39;;;;;;;1.30;1.00;;;;;;;13.78;86.37;99204.73;2829023;84;21623;-66
2020/12/24 00:29:44;;;;;;;1.25;1.15;;;;;;;13.91;85.97;99202.83;2831094;83;21142;-66
2020/12/24 00:33:52;;;;;;;3.47;1.05;;;;;;;13.98;85.30;99200.30;2828105;84;21180;-66
2020/12/24 00:37:56;;;;;;;1.47;0.93;;;;;;;14.06;84.84;99191.41;2829679;83;21129;-66
2020/12/24 00:41:59;;;;;;;0.90;0.90;;;;;;;14.06;84.34;99214.95;2828531;82;21208;-65
2020/12/24 00:46:03;;;;;;;2.87;1.47;;;;;;;14.09;84.27;99218.61;2826359;84;21169;-65
2020/12/24 00:50:09;;;;;;;1.25;0.98;;;;;;;14.12;84.07;99206.73;2829066;83;21600;-65
2020/12/24 00:58:38;;;;;;;1.72;0.93;;;;;;;14.21;83.24;99209.68;2724929;86;21141;-65
2020/12/24 01:02:43;;;;;;;1.47;0.70;;;;;;;14.21;82.62;99204.33;2718437;86;21205;-66
2020/12/24 01:06:49;;;;;;;1.27;0.90;;;;;;;14.24;82.45;99207.17;2740301;86;21180;-65
2020/12/24 01:10:53;;;;;;;0.78;0.50;;;;;;;14.27;82.07;99210.83;2741928;85;21212;-66
2020/12/24 01:14:56;;;;;;;1.57;1.00;;;;;;;14.32;81.67;99212.45;2741251;86;21614;-66
2020/12/24 01:19:02;;;;;;;1.50;0.78;;;;;;;14.33;81.26;99206.09;2736638;86;21151;-66
2020/12/24 01:23:06;;;;;;;1.98;1.15;;;;;;;14.35;80.95;99203.26;2764229;85;21193;-64
2020/12/24 01:27:11;;;;;;;4.55;0.93;;;;;;;14.33;80.38;99200.75;2743074;86;21190;-65
2020/12/24 01:31:14;;;;;;;0.93;0.80;;;;;;;14.34;80.48;99207.77;2719254;87;21180;-64
2020/12/24 01:35:18;;;;;;;1.27;0.80;;;;;;;14.33;80.35;99207.44;2719927;87;21169;-66
2020/12/24 01:39:23;;;;;;;1.40;0.70;;;;;;;14.32;80.49;99212.45;2720402;87;21188;-65
2020/12/24 01:43:27;;;;;;;2.08;0.85;;;;;;;14.31;80.21;99202.77;2720290;87;21196;-65
2020/12/24 01:47:30;;;;;;;1.67;0.95;;;;;;;14.31;79.74;99204.62;2720405;87;21156;-65
2020/12/24 01:51:36;;;;;;;1.57;0.93;;;;;;;14.26;79.51;99206.48;2720682;87;21143;-67
2020/12/24 01:55:39;;;;;;;1.22;0.78;;;;;;;14.19;79.49;99201.00;2719348;87;21156;-64
2020/12/24 01:59:43;;;;;;;1.37;0.93;;;;;;;14.15;79.24;99197.02;2673545;88;21110;-65
2020/12/24 02:03:49;;;;;;;1.20;0.55;;;;;;;14.13;78.97;99197.19;2740187;86;21140;-66
2020/12/24 02:07:52;;;;;;;0.42;0.28;;;;;;;14.12;78.68;99196.86;2669507;89;21133;-65
2020/12/24 02:11:58;;;;;;;1.22;0.85;;;;;;;14.10;78.60;99196.20;2715183;87;21144;-64
2020/12/24 02:16:02;;;;;;;0.37;0.37;;;;;;;14.09;78.38;99191.87;2669871;89;21161;-65
2020/12/24 02:20:05;;;;;;;2.35;0.95;;;;;;;14.06;78.02;99176.18;2715365;87;21131;-63
2020/12/24 02:24:10;;;;;;;0.68;0.68;;;;;;;14.03;77.93;99174.35;2671428;88;21161;-63
2020/12/24 02:28:14;;;;;;;1.37;0.40;;;;;;;13.98;77.99;99170.89;2715057;87;21156;-62
2020/12/24 02:32:17;;;;;;;1.10;1.00;;;;;;;13.93;77.95;99178.09;2677375;88;21181;-62
2020/12/24 02:36:20;;;;;;;0.65;0.42;;;;;;;13.89;77.84;99175.45;2746257;85;21197;-62
2020/12/24 02:40:27;;;;;;;2.45;0.68;;;;;;;13.84;78.01;99162.59;2758628;85;21156;-63
2020/12/24 02:44:30;;;;;;;0.68;0.45;;;;;;;13.85;77.69;99177.63;2754677;85;21184;-62
2020/12/24 02:48:34;;;;;;;0.65;0.30;;;;;;;13.88;77.33;99178.28;2778559;85;21188;-63
2020/12/24 02:52:38;;;;;;;0.85;0.50;;;;;;;13.96;77.25;99173.73;2778511;85;21160;-62
2020/12/24 02:56:42;;;;;;;2.12;0.80;;;;;;;14.08;76.66;99184.04;2778342;85;21574;-62
2020/12/24 03:00:46;;;;;;;0.60;0.50;;;;;;;14.08;76.35;99186.19;2778687;85;21161;-63
2020/12/24 03:04:53;;;;;;;1.22;0.40;;;;;;;14.08;76.58;99180.84;2778708;85;21168;-62
2020/12/24 03:08:56;;;;;;;0.68;0.35;;;;;;;14.11;76.43;99187.17;2778678;85;21196;-63
2020/12/24 03:12:59;;;;;;;0.90;0.55;;;;;;;14.08;76.43;99193.39;2778583;85;21132;-63
2020/12/24 03:17:03;;;;;;;1.72;0.50;;;;;;;14.09;76.32;99187.86;2772485;85;21188;-62
2020/12/24 03:21:07;;;;;;;0.60;0.50;;;;;;;14.10;75.93;99186.84;2755004;85;21153;-62
2020/12/24 03:25:11;;;;;;;0.60;0.45;;;;;;;14.14;75.75;99186.00;2759548;85;21172;-62
2020/12/24 03:29:14;;;;;;;1.60;0.50;;;;;;;14.22;75.32;99200.65;2778479;85;21133;-63
2020/12/24 03:33:18;;;;;;;0.40;0.30;;;;;;;14.21;75.41;99192.82;2778652;85;21180;-61
2020/12/24 03:37:21;;;;;;;1.52;0.55;;;;;;;14.22;75.25;99191.81;2778322;85;21169;-63
2020/12/24 03:41:25;;;;;;;0.90;0.50;;;;;;;14.20;75.08;99185.28;2778478;85;21179;-62
2020/12/24 03:45:30;;;;;;;1.60;0.30;;;;;;;14.24;74.63;99179.09;2778792;85;21161;-63
2020/12/24 03:49:35;;;;;;;1.32;0.82;;;;;;;14.17;74.83;99179.48;2778674;85;21187;-62
2020/12/24 03:53:38;;;;;;;2.37;0.72;;;;;;;14.09;74.88;99177.16;2769633;85;21208;-62
2020/12/24 03:57:42;;;;;;;0.68;0.50;;;;;;;14.03;74.91;99175.20;2769938;85;21628;-62
2020/12/24 04:01:45;;;;;;;1.25;0.70;;;;;;;13.97;75.05;99171.90;2750703;85;21188;-61
2020/12/24 04:05:49;;;;;;;0.40;0.20;;;;;;;13.95;74.81;99168.05;2730936;87;21199;-62
2020/12/24 04:09:52;;;;;;;0.55;0.50;;;;;;;13.94;74.94;99168.22;2731011;87;21147;-62
2020/12/24 04:13:55;;;;;;;0.50;0.50;;;;;;;13.83;75.09;99160.08;2731274;87;21212;-62
2020/12/24 04:17:58;;;;;;;0.50;0.20;;;;;;;13.76;75.11;99153.78;2730915;87;21159;-61
2020/12/24 04:22:02;;;;;;;0.75;0.45;;;;;;;13.71;75.15;99159.16;2731226;87;21171;-63
2020/12/24 04:26:05;;;;;;;0.42;0.28;;;;;;;13.74;75.15;99147.78;2731178;87;21202;-63
2020/12/24 04:30:09;;;;;;;1.70;0.37;;;;;;;13.72;75.08;99138.59;2730805;87;21640;-61
2020/12/24 04:34:12;;;;;;;1.90;0.70;;;;;;;13.71;75.01;99124.41;2744214;85;21155;-63
2020/12/24 04:38:15;;;;;;;2.33;0.88;;;;;;;13.71;74.93;99148.95;2752243;85;21148;-62
2020/12/24 04:42:21;;;;;;;2.27;1.00;;;;;;;13.73;74.92;99148.79;2776251;85;21177;-62
2020/12/24 04:46:28;;;;;;;2.00;1.17;;;;;;;13.74;74.82;99151.80;2776780;85;21653;-62
2020/12/24 04:50:31;;;;;;;1.30;0.65;;;;;;;13.69;74.76;99144.29;2776610;85;21144;-62
2020/12/24 04:54:36;;;;;;;3.77;0.78;;;;;;;13.68;74.58;99166.19;2776251;85;21180;-61
2020/12/24 04:58:43;;;;;;;0.90;0.50;;;;;;;13.70;74.53;99171.34;2777577;85;21190;-62
2020/12/24 05:03:09;;;;;;;1.37;0.50;;;;;;;13.69;74.53;99158.98;2768037;85;21622;-62
2020/12/24 05:07:13;;;;;;;1.67;0.55;;;;;;;13.72;74.37;99154.63;2742251;85;21153;-62
2020/12/24 05:11:20;;;;;;;3.25;0.40;;;;;;;13.74;74.09;99137.91;2772447;85;21200;-61
2020/12/24 05:15:35;;;;;;;1.85;0.88;;;;;;;13.71;74.34;99135.59;2778281;85;21160;-62
2020/12/24 05:19:47;;;;;;;0.68;0.53;;;;;;;13.70;74.42;99141.95;2778590;85;21144;-62
2020/12/24 05:23:45;;;;;;;3.17;0.75;;;;;;;13.66;74.25;99141.97;2778006;85;21160;-62
2020/12/24 05:28:02;;;;;;;2.65;1.27;;;;;;;13.60;74.29;99122.64;2778620;85;21196;-62
2020/12/24 05:32:07;;;;;;;1.62;1.00;;;;;;;13.52;74.53;99125.66;2778524;85;21108;-62
2020/12/24 05:36:24;;;;;;;1.92;1.40;;;;;;;13.51;74.58;99144.55;2778735;85;21161;-62
2020/12/24 05:40:33;;;;;;;;;;;;;;;13.47;74.69;99157.41;2765227;85;21212;-64
2020/12/24 05:44:37;;;;;;;2.15;1.42;;;;;;;13.40;74.54;99159.08;2736802;85;20178;-65
2020/12/24 05:48:41;;;;;;;4.67;0.75;;;;;;;13.34;74.82;99158.41;2764128;85;21180;-64
2020/12/24 05:53:06;;;;;;;1.85;0.82;;;;;;;13.27;74.75;99161.77;2768796;85;21164;-63
2020/12/24 05:57:13;;;;;;;0.68;0.45;;;;;;;13.19;74.91;99143.12;2750537;85;21180;-63
2020/12/24 06:01:17;;;;;;;1.85;1.25;;;;;;;13.21;75.11;99121.08;2710235;87;21622;-64
2020/12/24 06:05:24;;;;;;;1.15;0.90;;;;;;;13.25;75.00;99102.86;2690742;88;21172;-63
2020/12/24 06:09:32;;;;;;;1.10;0.65;;;;;;;13.28;74.81;99110.55;2662004;89;21214;-64
2020/12/24 06:13:45;;;;;;;4.55;1.30;;;;;;;13.28;74.78;99104.69;2691088;88;21645;-63
2020/12/24 06:17:50;;;;;;;1.00;0.88;;;;;;;13.31;74.70;99089.32;2710307;87;21158;-63
2020/12/24 06:21:55;;;;;;;0.93;0.63;;;;;;;13.34;74.65;99078.28;2689425;88;21166;-63
2020/12/24 06:26:03;;;;;;;0.75;0.70;;;;;;;13.36;74.59;99074.94;2689317;88;21164;-64
2020/12/24 06:30:10;;;;;;;1.35;0.70;;;;;;;13.32;74.66;99062.45;2687302;88;21482;-64
2020/12/24 06:34:40;;;;;;;0.75;0.60;;;;;;;13.27;74.62;99068.31;2689031;88;21171;-63
2020/12/24 06:38:47;;;;;;;0.60;0.50;;;;;;;13.25;74.79;99072.14;2738358;86;21196;-63
2020/12/24 06:42:52;;;;;;;1.22;0.70;;;;;;;13.28;74.75;99077.98;2775023;85;21172;-63
2020/12/24 06:46:59;;;;;;;0.88;0.40;;;;;;;13.32;74.69;99080.30;2811797;84;21127;-64
2020/12/24 06:51:06;;;;;;;4.95;0.50;;;;;;;13.33;74.70;99085.48;2759314;86;21158;-63
2020/12/24 06:55:16;;;;;;;1.87;0.90;;;;;;;13.36;74.44;99078.45;2813830;84;21183;-62
2020/12/24 06:59:21;;;;;;;0.80;0.35;;;;;;;13.41;73.89;99083.28;2813018;83;21131;-62
2020/12/24 07:03:25;;;;;;;3.52;0.75;;;;;;;13.42;74.00;99064.91;2815840;84;21464;-63
2020/12/24 07:07:47;;;;;;;1.35;0.50;;;;;;;13.46;73.81;99083.62;2839433;83;21153;-63
2020/12/24 07:11:53;;;;;;;1.57;0.30;;;;;;;13.42;73.84;99084.95;2810540;83;21156;-64
2020/12/24 07:15:56;;;;;;;;;;;;;;;13.33;73.86;99100.17;2823234;83;21165;-64
2020/12/24 07:20:01;;;;;;;0.75;0.55;;;;;;;13.32;73.80;99094.98;2818441;83;20433;-64
2020/12/24 07:24:08;;;;;;;0.80;0.50;;;;;;;13.29;74.16;99093.00;2820651;84;21205;-63
2020/12/24 07:28:15;;;;;;;0.40;0.25;;;;;;;13.28;74.12;99079.31;2757211;85;21310;-63
2020/12/24 07:32:20;;;;;;;0.68;0.50;;;;;;;13.28;74.12;99081.98;2740368;85;21580;-63
2020/12/24 07:36:25;;;;;;;5.15;0.40;;;;;;;13.32;73.97;99109.68;2804709;84;21160;-62
2020/12/24 07:40:33;;;;;;;1.17;0.75;;;;;;;13.33;73.36;99096.66;2824017;84;21619;-63
2020/12/24 07:44:37;;;;;;;0.53;0.20;;;;;;;13.42;73.07;99104.98;2770089;85;21192;-63
2020/12/24 07:48:43;;;;;;;0.72;0.50;;;;;;;13.49;72.00;99107.30;2843102;82;21196;-63
2020/12/24 07:52:46;;;;;;;1.42;0.95;;;;;;;13.56;71.13;99108.30;2840929;81;21196;-63
2020/12/24 07:56:50;;;;;;;0.72;0.40;;;;;;;13.56;71.00;99073.56;2831567;83;21155;-61
2020/12/24 08:00:53;;;;;;;2.40;0.98;;;;;;;13.56;70.69;99090.93;2826009;83;21190;-62
2020/12/24 08:04:56;;;;;;;1.05;0.55;;;;;;;13.53;70.67;99081.91;2841336;83;21140;-63
2020/12/24 08:09:17;;;;;;;0.95;0.35;;;;;;;13.49;70.71;99075.77;2840912;82;21626;-62
2020/12/24 08:13:22;;;;;;;1.62;0.98;;;;;;;13.50;70.37;99056.87;2826814;82;21156;-63
2020/12/24 08:17:30;;;;;;;3.40;1.17;;;;;;;13.45;70.20;99093.97;2776746;84;21186;-64
2020/12/24 08:21:42;;;;;;;3.92;1.62;;;;;;;13.44;70.57;99098.98;2787048;84;21184;-62
2020/12/24 08:25:50;;;;;;;1.45;1.20;;;;;;;13.41;70.56;99092.11;2832631;83;21148;-61
2020/12/24 08:29:58;;;;;;;1.80;1.15;;;;;;;13.39;69.97;99082.62;2841108;83;21181;-62
2020/12/24 08:34:02;;;;;;;1.57;1.02;;;;;;;13.37;69.80;99096.66;2850262;83;21615;-60
2020/12/24 08:38:15;;;;;;;2.05;1.65;;;;;;;13.33;69.09;99092.65;2801921;84;21211;-62
2020/12/24 08:42:22;;;;;;;1.10;0.70;;;;;;;13.28;68.47;99106.02;2786769;84;21140;-64
2020/12/24 08:46:26;;;;;;;1.55;0.70;;;;;;;13.24;67.58;99115.39;2811049;84;21636;-62
2020/12/24 08:50:34;;;;;;;0.78;0.45;;;;;;;13.16;66.95;99116.73;2796905;84;21120;-64
2020/12/24 08:54:38;;;;;;;0.88;0.40;;;;;;;13.13;67.19;99135.77;2807141;84;21186;-61
2020/12/24 08:58:52;;;;;;;1.00;0.50;;;;;;;13.09;67.13;99109.09;2749769;86;29375;-62
2020/12/24 09:02:55;;;;;;;0.65;0.23;;;;;;;13.11;67.04;99088.39;2779807;84;21156;-62
2020/12/24 09:06:58;;;;;;;3.05;0.40;;;;;;;13.07;67.15;99089.26;2766268;86;21131;-62
2020/12/24 09:11:02;;;;;;;1.60;0.47;;;;;;;13.04;67.13;99118.94;2766768;86;21166;-61
2020/12/24 09:15:09;;;;;;;2.65;1.32;;;;;;;12.95;67.72;99148.81;2765337;86;21195;-62
2020/12/24 09:19:12;;;;;;;2.37;1.22;;;;;;;12.68;69.55;99142.84;2767311;86;21285;-62
2020/12/24 09:23:16;;;;;;;2.08;0.75;;;;;;;12.48;70.38;99140.19;2790726;84;21179;-61
2020/12/24 09:27:19;;;;;;;1.25;0.98;;;;;;;12.31;71.07;99162.02;2767487;86;21186;-61
2020/12/24 09:31:24;;;;;;;1.80;1.20;;;;;;;12.25;71.84;99155.51;2768106;85;21175;-63
2020/12/24 09:35:29;;;;;;;7.37;1.82;;;;;;;12.23;72.18;99130.84;2766474;86;21203;-62
2020/12/24 09:39:34;;;;;;;2.35;1.15;;;;;;;12.30;72.62;99117.17;2778065;84;21162;-63
2020/12/24 09:43:38;;;;;;;12.88;2.40;;;;;;;12.24;72.39;99118.66;2796970;84;21182;-62
2020/12/24 09:47:44;;;;;;;1.22;1.02;;;;;;;12.20;73.05;99119.19;2797205;84;21130;-62
2020/12/24 09:51:47;;;;;;;2.22;1.42;;;;;;;12.21;73.15;99106.19;2801711;84;21182;-63
2020/12/24 09:55:53;;;;;;;2.90;1.90;;;;;;;12.30;72.04;99118.51;2786089;84;21623;-64
2020/12/24 09:59:56;;;;;;;3.77;1.80;;;;;;;12.34;71.26;99122.50;2804821;84;21189;-63
2020/12/24 10:04:01;;;;;;;3.65;1.40;;;;;;;12.44;71.47;99119.67;2807207;83;21146;-62
2020/12/24 10:08:04;;;;;;;2.55;1.50;;;;;;;12.56;69.21;99100.16;2777658;84;21186;-62
2020/12/24 10:12:08;;;;;;;1.95;1.15;;;;;;;12.65;67.85;99105.84;2771387;85;21130;-61
2020/12/24 10:16:11;;;;;;;3.70;1.10;;;;;;;12.66;67.50;99090.16;2757364;86;21141;-63
2020/12/24 10:20:14;;;;;;;7.28;1.25;;;;;;;12.67;65.97;99086.49;2787290;85;21126;-61
2020/12/24 10:24:18;;;;;;;5.53;1.32;;;;;;;12.71;63.88;99074.47;2776861;85;21158;-61
2020/12/24 10:28:21;;;;;;;4.00;1.45;;;;;;;12.77;64.50;99092.98;2771793;85;21194;-61
2020/12/24 10:32:24;;;;;;;3.05;1.70;;;;;;;12.88;64.02;99076.30;2779624;85;21130;-59
2020/12/24 10:36:28;;;;;;;4.15;1.75;;;;;;;12.98;62.75;99061.75;2774672;85;21199;-63
2020/12/24 10:40:31;;;;;;;2.37;1.40;;;;;;;12.95;60.65;99054.06;2701090;87;21192;-59
2020/12/24 10:44:43;;;;;;;1.70;1.00;;;;;;;13.02;62.61;99060.06;2726561;86;21177;-62
2020/12/24 10:48:51;;;;;;;1.60;0.95;;;;;;;12.94;61.62;99047.06;2708042;86;21153;-62
2020/12/24 10:52:55;;;;;;;;;;;;;;;12.82;61.32;99067.12;2722361;86;21184;-63
2020/12/24 10:57:00;;;;;;;2.67;0.88;;;;;;;12.63;61.01;99070.98;2741232;86;20504;-63
2020/12/24 11:01:13;;;;;;;4.55;1.92;;;;;;;12.41;61.15;99076.86;2718679;86;21196;-64
2020/12/24 11:05:16;;;;;;;4.15;0.80;;;;;;;12.19;61.13;99065.02;2734620;85;21157;-61
2020/12/24 11:09:19;;;;;;;2.52;1.17;;;;;;;12.06;61.06;99063.33;2719907;86;21201;-63
2020/12/24 11:13:22;;;;;;;3.00;1.07;;;;;;;11.92;61.64;99062.13;2781079;85;21168;-59
2020/12/24 11:17:27;;;;;;;8.30;1.42;;;;;;;11.86;61.88;99055.14;2781326;84;21202;-63
2020/12/24 11:21:33;;;;;;;2.83;1.10;;;;;;;11.85;62.18;99053.47;2815704;84;22273;-61
2020/12/24 11:25:36;;;;;;;3.80;1.30;;;;;;;11.94;62.63;99038.33;2774963;85;21150;-62
2020/12/24 11:29:41;;;;;;;2.60;1.62;;;;;;;12.02;62.60;99036.69;2803701;84;21459;-60
2020/12/24 11:33:45;;;;;;;7.20;2.02;;;;;;;12.10;63.09;99030.86;2737930;86;21173;-61
2020/12/24 11:37:49;;;;;;;5.67;1.35;;;;;;;12.22;62.15;99007.36;2806778;83;21156;-61
2020/12/24 11:41:52;;;;;;;12.05;1.77;;;;;;;12.26;61.27;98999.87;2807195;83;21178;-60
2020/12/24 11:45:56;;;;;;;5.95;1.57;;;;;;;12.30;62.59;98977.71;2806437;84;21204;-60
2020/12/24 11:49:59;;;;;;;1.55;1.12;;;;;;;12.28;62.67;98989.38;2803852;83;21168;-63
2020/12/24 11:54:02;;;;;;;4.62;1.47;;;;;;;12.19;62.44;98976.23;2812732;83;21146;-62
2020/12/24 11:58:08;;;;;;;4.50;1.92;;;;;;;12.07;62.65;98963.23;2805194;84;21211;-62
2020/12/24 12:02:12;;;;;;;4.60;1.77;;;;;;;12.02;63.55;98972.23;2754103;85;21186;-61
2020/12/24 12:06:16;;;;;;;3.10;0.93;;;;;;;12.02;63.34;98952.25;2798279;84;21220;-61
2020/12/24 12:10:20;;;;;;;1.57;0.88;;;;;;;12.02;64.53;98954.07;2800372;84;21183;-61
2020/12/24 12:14:24;;;;;;;1.85;1.35;;;;;;;12.07;65.13;98957.05;2798029;84;21125;-61
2020/12/24 12:18:28;;;;;;;1.50;1.10;;;;;;;12.18;65.21;98961.20;2733354;86;21183;-60
2020/12/24 12:22:32;;;;;;;2.15;1.70;;;;;;;12.24;65.78;98968.55;2799959;84;21132;-59
2020/12/24 12:26:35;;;;;;;2.47;1.80;;;;;;;12.33;65.71;98975.52;2736829;85;21166;-62
2020/12/24 12:30:38;;;;;;;2.02;1.72;;;;;;;12.41;63.80;98944.00;2808615;83;21179;-60
2020/12/24 12:34:42;;;;;;;1.57;1.32;;;;;;;12.53;64.44;98960.47;2773734;84;21170;-58
2020/12/24 12:38:48;;;;;;;1.98;1.07;;;;;;;12.58;64.26;98959.48;2808801;84;21194;-58
2020/12/24 12:42:52;;;;;;;4.28;1.87;;;;;;;12.64;63.90;98958.78;2808891;84;21141;-62
2020/12/24 12:46:57;;;;;;;4.12;1.35;;;;;;;12.68;64.10;98955.28;2810026;83;21184;-59
2020/12/24 12:51:01;;;;;;;2.95;1.40;;;;;;;12.61;63.26;98944.95;2761753;86;21150;-59
2020/12/24 12:55:06;;;;;;;2.20;1.20;;;;;;;12.48;63.06;98947.67;2772057;84;21173;-60
2020/12/24 12:59:10;;;;;;;2.30;1.82;;;;;;;12.39;63.76;98950.02;2786994;84;21627;-59
2020/12/24 13:03:14;;;;;;;4.17;1.65;;;;;;;12.33;64.66;98947.52;2811258;84;21181;-60
2020/12/24 13:07:18;;;;;;;3.65;1.07;;;;;;;12.34;64.99;98955.03;2799407;84;21198;-61
2020/12/24 13:11:21;;;;;;;3.15;1.82;;;;;;;12.42;65.26;98953.19;2772034;84;21184;-61
2020/12/24 13:15:24;;;;;;;5.40;1.57;;;;;;;12.53;65.36;98944.47;2822068;83;21589;-61
2020/12/24 13:19:28;;;;;;;2.50;1.42;;;;;;;12.60;65.49;98949.47;2831531;83;21774;-61
2020/12/24 13:23:32;;;;;;;3.55;1.12;;;;;;;12.57;64.64;98953.30;2820629;83;21142;-62
2020/12/24 13:27:37;;;;;;;1.95;0.98;;;;;;;12.51;62.93;98947.33;2827105;83;21173;-59
2020/12/24 13:31:40;;;;;;;3.12;0.93;;;;;;;12.38;63.28;98943.86;2838991;83;21164;-61
2020/12/24 13:35:44;;;;;;;4.50;1.10;;;;;;;12.21;63.90;98944.90;2838281;83;21159;-60
2020/12/24 13:39:47;;;;;;;8.90;2.62;;;;;;;11.68;69.40;98965.20;2797844;83;21170;-59
2020/12/24 13:43:52;;;;;;;2.98;1.62;;;;;;;11.10;72.28;98959.77;2808533;84;21153;-61
2020/12/24 13:47:56;;;;;;;2.37;1.57;;;;;;;10.84;72.98;98987.30;2805064;83;21144;-61
2020/12/24 13:52:00;;;;;;;5.87;1.72;;;;;;;10.65;74.60;98975.90;2799615;84;21694;-61
2020/12/24 13:56:04;;;;;;;12.23;3.45;;;;;;;10.54;75.08;98981.00;2800882;84;21600;-60
2020/12/24 14:00:08;;;;;;;4.30;1.70;;;;;;;10.53;75.08;98971.84;2799735;84;21186;-60
2020/12/24 14:04:15;;;;;;;6.00;2.42;;;;;;;10.58;74.78;98973.52;2803512;84;21166;-61
2020/12/24 14:08:19;;;;;;;12.75;4.00;;;;;;;10.61;74.44;98972.37;2810854;84;21158;-59
2020/12/24 14:12:23;;;;;;;7.83;3.42;;;;;;;10.62;74.09;98986.02;2807719;83;21195;-61
2020/12/24 14:16:26;;;;;;;10.65;1.50;;;;;;;10.61;73.87;98981.20;2805833;84;21427;-60
2020/12/24 14:20:30;;;;;;;3.62;1.42;;;;;;;10.62;72.92;98977.55;2802982;84;21154;-62
2020/12/24 14:24:34;;;;;;;1.60;1.35;;;;;;;10.65;71.86;98965.75;2799584;84;21172;-62
2020/12/24 14:28:39;;;;;;;5.58;1.47;;;;;;;10.67;71.53;98967.74;2806848;84;21138;-61
2020/12/24 14:32:43;;;;;;;4.90;1.45;;;;;;;10.67;71.07;98967.27;2805972;84;21168;-63
2020/12/24 14:36:53;;;;;;;2.83;1.62;;;;;;;10.63;71.08;98970.39;2808780;84;21206;-62
2020/12/24 14:40:52;;;;;;;10.08;1.35;;;;;;;10.62;70.83;98976.70;2841722;83;21603;-62
2020/12/24 14:44:55;;;;;;;2.87;1.10;;;;;;;10.58;70.54;98980.16;2832533;83;21629;-61
2020/12/24 14:48:59;;;;;;;1.85;1.00;;;;;;;10.52;70.73;98979.00;2843065;83;21202;-62
2020/12/24 14:53:03;;;;;;;2.08;1.50;;;;;;;10.42;70.48;98977.77;2841272;83;21103;-64
2020/12/24 14:57:08;;;;;;;2.20;1.30;;;;;;;10.34;70.65;98975.02;2836061;83;21136;-62
2020/12/24 15:01:11;;;;;;;2.75;1.40;;;;;;;10.31;70.90;98984.64;2835828;83;21154;-60
2020/12/24 15:05:16;;;;;;;2.27;1.25;;;;;;;10.23;70.79;98988.58;2841757;83;21173;-59
2020/12/24 15:09:22;;;;;;;3.33;1.10;;;;;;;10.17;70.90;98977.22;2834887;83;21199;-62
2020/12/24 15:13:25;;;;;;;;;;;;;;;10.11;71.11;98984.83;2849786;83;21204;-61
2020/12/24 15:17:30;;;;;;;6.25;0.57;;;;;;;10.06;71.38;98977.83;2829144;82;20210;-60
2020/12/24 15:21:34;;;;;;;2.83;1.45;;;;;;;10.00;71.51;98969.12;2840069;83;21113;-62
2020/12/24 15:25:38;;;;;;;1.07;0.95;;;;;;;9.97;71.63;98981.40;2844970;83;21133;-63
2020/12/24 15:29:42;;;;;;;1.20;0.85;;;;;;;9.90;71.60;98977.70;2825756;82;21163;-61
2020/12/24 15:33:46;;;;;;;1.40;1.12;;;;;;;9.83;71.85;98971.69;2837168;83;21159;-63
2020/12/24 15:37:50;;;;;;;3.37;1.32;;;;;;;9.82;71.84;98973.15;2846215;83;22261;-65
2020/12/24 15:41:54;;;;;;;4.80;1.50;;;;;;;9.76;71.87;98967.95;2835475;83;21100;-61
2020/12/24 15:46:01;;;;;;;2.90;1.00;;;;;;;9.74;71.91;98965.13;2825250;83;21178;-59
2020/12/24 15:50:05;;;;;;;3.17;1.47;;;;;;;9.71;71.93;98960.95;2832455;83;21160;-61
2020/12/24 15:54:10;;;;;;;2.05;1.02;;;;;;;9.66;72.04;98969.87;2830214;83;21179;-60
2020/12/24 15:58:13;;;;;;;2.27;0.80;;;;;;;9.61;72.43;98970.80;2840962;83;21189;-59
2020/12/24 16:02:16;;;;;;;3.58;0.90;;;;;;;9.52;72.76;98956.13;2830741;82;21165;-62
2020/12/24 16:06:20;;;;;;;2.30;1.45;;;;;;;9.54;73.19;98955.48;2837576;83;21149;-62
2020/12/24 16:10:25;;;;;;;0.82;0.80;;;;;;;9.57;73.39;98957.83;2771426;85;22242;-60
2020/12/24 16:14:30;;;;;;;1.25;1.00;;;;;;;9.64;73.48;98951.94;2753031;84;21257;-59
2020/12/24 16:18:33;;;;;;;4.87;1.25;;;;;;;9.67;73.78;98952.95;2830854;83;21203;-60
2020/12/24 16:22:37;;;;;;;4.17;1.67;;;;;;;9.73;73.70;98951.00;2842277;83;21167;-60
2020/12/24 16:26:45;;;;;;;2.10;1.20;;;;;;;9.80;73.63;98941.42;2827115;83;21187;-61
2020/12/24 16:30:48;;;;;;;5.12;2.02;;;;;;;9.85;73.47;98947.61;2784523;83;21157;-62
2020/12/24 16:34:51;;;;;;;7.03;2.52;;;;;;;9.95;73.39;98951.02;2833452;82;21175;-63
2020/12/24 16:38:54;;;;;;;4.80;2.27;;;;;;;10.03;72.96;98942.28;2840875;83;21117;-64
2020/12/24 16:43:02;;;;;;;2.58;1.87;;;;;;;10.04;72.53;98943.95;2843759;82;21547;-64
2020/12/24 16:47:11;;;;;;;6.00;2.58;;;;;;;10.07;72.11;98946.77;2831336;83;21157;-64
2020/12/24 16:51:27;;;;;;;1.87;1.37;;;;;;;10.11;71.76;98944.98;2826576;83;21132;-63
2020/12/24 16:55:36;;;;;;;4.22;1.10;;;;;;;10.14;71.43;98963.77;2843959;83;21152;-61
2020/12/24 16:59:42;;;;;;;4.78;1.90;;;;;;;10.21;71.20;98964.81;2821800;83;21131;-64
2020/12/24 17:03:45;;;;;;;;;;;;;;;10.11;73.57;98988.82;2830212;83;21161;-63
2020/12/24 17:07:48;;;;;;;1.55;0.80;;;;;;;9.68;77.35;98989.95;2836267;83;20484;-62
2020/12/24 17:12:01;;;;;;;0.93;0.33;;;;;;;9.14;78.18;99000.05;2847236;83;21567;-65
2020/12/24 17:16:12;;;;;;;1.42;1.00;;;;;;;8.77;80.35;99026.58;2826529;83;21128;-62
2020/12/24 17:20:37;;;;;;;1.90;1.27;;;;;;;8.66;80.97;99048.33;2763351;84;21126;-64
2020/12/24 17:24:42;;;;;;;2.10;1.12;;;;;;;8.52;82.34;99071.30;2819327;84;21139;-62
2020/12/24 17:28:53;;;;;;;5.33;1.47;;;;;;;8.37;82.81;99066.41;2818941;84;21131;-63
2020/12/24 17:33:07;;;;;;;1.87;1.05;;;;;;;8.32;82.89;99084.55;2818942;83;21735;-64
2020/12/24 17:37:20;;;;;;;3.70;1.57;;;;;;;8.06;83.24;99104.98;2817716;84;21159;-63
2020/12/24 17:41:28;;;;;;;0.70;0.70;;;;;;;7.85;83.96;99126.27;2806355;83;21167;-63
2020/12/24 17:45:35;;;;;;;3.50;1.35;;;;;;;7.45;79.54;99102.84;2825392;82;21105;-64
2020/12/24 17:49:42;;;;;;;1.65;1.55;;;;;;;7.07;78.62;99158.10;2830733;82;21187;-63
2020/12/24 17:53:47;;;;;;;3.67;2.12;;;;;;;6.95;78.81;99152.06;2833392;83;21137;-63
2020/12/24 17:57:51;;;;;;;2.17;2.08;;;;;;;6.87;79.15;99134.67;2837045;83;21673;-63
2020/12/24 18:01:56;;;;;;;2.30;2.05;;;;;;;6.82;78.92;99145.66;2830328;83;21191;-63
2020/12/24 18:06:11;;;;;;;3.47;2.27;;;;;;;6.82;79.10;99158.02;2823312;83;21166;-63
2020/12/24 18:10:26;;;;;;;2.98;2.27;;;;;;;6.82;79.13;99148.77;2834862;82;21155;-62
2020/12/24 18:14:29;;;;;;;3.08;2.77;;;;;;;6.70;78.97;99165.18;2833577;82;21565;-60
2020/12/24 18:18:33;;;;;;;4.83;3.35;;;;;;;6.75;79.33;99148.45;2837145;83;21191;-61
2020/12/24 18:22:36;;;;;;;2.52;2.15;;;;;;;6.81;79.15;99185.42;2833298;82;21151;-62
2020/12/24 18:26:39;;;;;;;5.20;3.42;;;;;;;6.78;79.35;99197.58;2847433;83;21125;-62
2020/12/24 18:30:43;;;;;;;3.08;1.80;;;;;;;6.78;79.08;99206.36;2845352;83;21575;-65
2020/12/24 18:34:49;;;;;;;2.75;1.62;;;;;;;6.76;79.06;99204.80;2841748;83;21171;-63
2020/12/24 18:38:52;;;;;;;0.78;0.78;;;;;;;6.66;78.92;99226.69;2837502;83;21175;-63
2020/12/24 18:42:56;;;;;;;0.88;0.88;;;;;;;6.60;78.86;99223.24;2841641;82;21171;-63
2020/12/24 18:46:59;;;;;;;1.85;0.88;;;;;;;6.54;79.58;99227.72;2843613;83;21161;-63
2020/12/24 18:51:02;;;;;;;1.17;0.85;;;;;;;6.49;80.23;99229.91;2841457;82;21149;-62
2020/12/24 18:55:07;;;;;;;2.27;1.10;;;;;;;6.41;80.56;99252.48;2844065;83;21172;-64
2020/12/24 18:59:10;;;;;;;3.22;1.22;;;;;;;6.37;80.92;99255.49;2854122;83;21167;-64
2020/12/24 19:03:15;;;;;;;1.80;0.95;;;;;;;6.28;81.22;99263.21;2833939;83;21147;-62
2020/12/24 19:07:20;;;;;;;2.10;1.40;;;;;;;6.19;81.50;99255.19;2835013;83;21155;-62
2020/12/24 19:11:25;;;;;;;1.82;0.95;;;;;;;6.12;82.19;99268.03;2837300;82;21585;-63
2020/12/24 19:15:28;;;;;;;1.45;1.35;;;;;;;6.11;82.48;99264.58;2841898;83;21610;-63
2020/12/24 19:19:33;;;;;;;2.05;1.52;;;;;;;5.99;83.01;99261.08;2844039;83;21175;-61
2020/12/24 19:23:36;;;;;;;2.98;1.70;;;;;;;5.92;83.27;99274.88;2839516;83;21151;-63